createdAt,value
2022-12-31T00:00:19.338Z,99139.80
2022-12-31T00:02:46.478Z,99147.30
2022-12-31T00:05:14.803Z,99150.60
2022-12-31T00:10:08.133Z,99162.16
2022-12-31T00:12:35.540Z,99164.40
2022-12-31T00:15:03.615Z,99160.20
2022-12-31T00:17:31.472Z,99164.20
2022-12-31T00:19:58.459Z,99167.96
2022-12-31T00:22:25.395Z,99167.76
2022-12-31T00:24:52.390Z,99161.04
2022-12-31T00:27:19.308Z,99162.81
2022-12-31T00:29:46.491Z,99157.73
2022-12-31T00:32:13.833Z,99154.22
2022-12-31T00:34:40.776Z,99158.85
2022-12-31T00:37:08.243Z,99165.06
2022-12-31T00:39:35.095Z,99164.68
2022-12-31T00:42:04.647Z,99172.96
2022-12-31T00:44:31.608Z,99175.48
2022-12-31T00:46:58.518Z,99166.86
2022-12-31T00:49:25.454Z,99159.77
2022-12-31T00:51:52.577Z,99167.42
2022-12-31T00:54:20.621Z,99171.75
2022-12-31T00:56:51.634Z,99188.28
2022-12-31T00:59:18.535Z,99185.41
2022-12-31T01:01:45.589Z,99194.45
2022-12-31T01:04:14.724Z,99186.94
2022-12-31T01:06:42.606Z,99172.38
2022-12-31T01:09:10.327Z,99164.87
2022-12-31T01:11:37.639Z,99162.92
2022-12-31T01:14:11.328Z,99162.55
2022-12-31T01:16:57.115Z,99174.37
2022-12-31T01:19:25.914Z,99172.55
2022-12-31T01:21:52.967Z,99167.48
2022-12-31T01:24:20.563Z,99159.77
2022-12-31T01:26:49.368Z,99159.74
2022-12-31T01:29:17.077Z,99162.14
2022-12-31T01:31:44.095Z,99164.91
2022-12-31T01:34:11.238Z,99163.86
2022-12-31T01:36:38.753Z,99160.59
2022-12-31T01:39:06.453Z,99150.60
2022-12-31T01:41:38.672Z,99140.08
2022-12-31T01:44:11.955Z,99123.66
2022-12-31T01:46:46.823Z,99121.60
2022-12-31T01:49:33.196Z,99126.18
2022-12-31T01:52:03.321Z,99126.54
2022-12-31T01:54:31.575Z,99126.34
2022-12-31T01:56:58.458Z,99123.89
2022-12-31T01:59:26.060Z,99122.39
2022-12-31T02:01:53.046Z,99120.20
2022-12-31T02:04:21.084Z,99124.17
2022-12-31T02:07:07.002Z,99122.59
2022-12-31T02:09:34.522Z,99127.59
2022-12-31T02:12:01.448Z,99129.11
2022-12-31T02:14:31.172Z,99133.62
2022-12-31T02:17:06.591Z,99130.64
2022-12-31T02:19:39.300Z,99129.86
2022-12-31T02:22:31.768Z,99130.77
2022-12-31T02:25:14.709Z,99136.02
2022-12-31T02:27:53.019Z,99140.21
2022-12-31T02:30:21.824Z,99143.50
2022-12-31T02:33:02.933Z,99145.89
2022-12-31T02:35:48.529Z,99147.65
2022-12-31T02:38:21.115Z,99152.29
2022-12-31T02:40:48.793Z,99148.31
2022-12-31T02:43:15.603Z,99155.95
2022-12-31T02:45:45.699Z,99151.26
2022-12-31T02:48:21.801Z,99150.19
2022-12-31T02:50:55.700Z,99153.08
2022-12-31T02:53:49.646Z,99153.11
2022-12-31T02:56:21.522Z,99154.17
2022-12-31T02:59:16.283Z,99156.45
2022-12-31T03:02:03.863Z,99157.89
2022-12-31T03:04:34.252Z,99150.72
2022-12-31T03:07:06.261Z,99153.56
2022-12-31T03:09:33.957Z,99155.51
2022-12-31T03:12:19.695Z,99155.23
2022-12-31T03:14:48.905Z,99154.66
2022-12-31T03:17:15.853Z,99150.27
2022-12-31T03:20:01.542Z,99145.36
2022-12-31T03:22:28.984Z,99142.92
2022-12-31T03:25:18.801Z,99140.52
2022-12-31T03:27:46.827Z,99139.89
2022-12-31T03:30:15.517Z,99143.81
2022-12-31T03:32:42.731Z,99146.99
2022-12-31T03:35:10.298Z,99152.10
2022-12-31T03:37:37.231Z,99156.32
2022-12-31T03:40:05.021Z,99153.40
2022-12-31T03:42:32.134Z,99152.09
2022-12-31T03:44:59.079Z,99151.14
2022-12-31T03:47:26.003Z,99153.80
2022-12-31T03:49:53.023Z,99155.77
2022-12-31T03:52:20.547Z,99157.81
2022-12-31T03:54:47.416Z,99163.80
2022-12-31T03:57:14.396Z,99161.86
2022-12-31T03:59:41.706Z,99164.38
2022-12-31T04:02:08.960Z,99170.13
2022-12-31T04:04:36.009Z,99167.42
2022-12-31T04:07:03.166Z,99169.27
2022-12-31T04:09:30.000Z,99177.42
2022-12-31T04:11:57.004Z,99173.84
2022-12-31T04:14:24.073Z,99175.15
2022-12-31T04:16:51.215Z,99175.59
2022-12-31T04:19:18.191Z,99178.46
2022-12-31T04:21:45.266Z,99173.25
2022-12-31T04:24:12.821Z,99166.52
2022-12-31T04:26:40.036Z,99165.13
2022-12-31T04:29:07.007Z,99165.77
2022-12-31T04:31:34.064Z,99174.44
2022-12-31T04:34:00.986Z,99175.55
2022-12-31T04:36:27.835Z,99175.11
2022-12-31T04:38:54.655Z,99176.01
2022-12-31T04:41:27.001Z,99174.20
2022-12-31T04:43:56.627Z,99172.39
2022-12-31T04:46:25.151Z,99175.09
2022-12-31T04:48:53.548Z,99171.64
2022-12-31T04:51:20.679Z,99172.48
2022-12-31T04:53:47.588Z,99170.12
2022-12-31T04:56:15.006Z,99171.16
2022-12-31T04:58:41.925Z,99160.20
2022-12-31T05:01:09.356Z,99153.02
2022-12-31T05:03:36.919Z,99146.95
2022-12-31T05:06:06.356Z,99146.17
2022-12-31T05:08:33.332Z,99149.44
2022-12-31T05:11:00.577Z,99151.69
2022-12-31T05:13:32.979Z,99149.44
2022-12-31T05:16:01.093Z,99145.22
2022-12-31T05:18:28.260Z,99140.69
2022-12-31T05:20:55.291Z,99148.89
2022-12-31T05:23:23.865Z,99147.25
2022-12-31T05:25:51.447Z,99140.65
2022-12-31T05:28:18.509Z,99140.46
2022-12-31T05:30:47.602Z,99142.59
2022-12-31T05:33:14.790Z,99136.27
2022-12-31T05:35:41.670Z,99138.42
2022-12-31T05:38:08.554Z,99141.96
2022-12-31T05:40:36.703Z,99146.69
2022-12-31T05:43:03.642Z,99142.36
2022-12-31T05:45:31.328Z,99151.04
2022-12-31T05:47:58.448Z,99155.53
2022-12-31T05:50:26.356Z,99166.00
2022-12-31T05:52:55.738Z,99160.09
2022-12-31T05:55:22.787Z,99159.11
2022-12-31T05:57:49.639Z,99156.33
2022-12-31T06:00:19.880Z,99150.58
2022-12-31T06:02:47.188Z,99147.54
2022-12-31T06:05:14.268Z,99138.90
2022-12-31T06:07:42.678Z,99129.05
2022-12-31T06:10:10.100Z,99118.86
2022-12-31T06:12:37.447Z,99119.09
2022-12-31T06:15:04.966Z,99121.28
2022-12-31T06:17:33.019Z,99126.15
2022-12-31T06:20:00.030Z,99124.91
2022-12-31T06:22:27.015Z,99120.38
2022-12-31T06:24:54.052Z,99119.35
2022-12-31T06:27:21.542Z,99113.35
2022-12-31T06:29:48.522Z,99115.55
2022-12-31T06:32:15.922Z,99117.59
2022-12-31T06:34:42.969Z,99118.29
2022-12-31T06:37:10.091Z,99115.90
2022-12-31T06:39:38.223Z,99121.77
2022-12-31T06:42:05.495Z,99125.66
2022-12-31T06:44:32.417Z,99122.72
2022-12-31T06:46:59.234Z,99126.33
2022-12-31T06:49:26.207Z,99129.65
2022-12-31T06:51:53.025Z,99124.99
2022-12-31T06:54:20.030Z,99126.77
2022-12-31T06:56:47.322Z,99123.76
2022-12-31T06:59:25.655Z,99127.98
2022-12-31T07:02:02.469Z,99130.83
2022-12-31T07:05:02.767Z,99131.30
2022-12-31T07:07:32.957Z,99130.15
2022-12-31T07:10:30.094Z,99131.16
2022-12-31T07:13:19.417Z,99123.98
2022-12-31T07:16:04.504Z,99115.73
2022-12-31T07:18:34.596Z,99126.52
2022-12-31T07:21:04.136Z,99132.01
2022-12-31T07:23:31.510Z,99137.36
2022-12-31T07:26:09.269Z,99137.23
2022-12-31T07:29:12.044Z,99138.17
2022-12-31T07:31:51.177Z,99136.56
2022-12-31T07:34:33.461Z,99133.48
2022-12-31T07:37:08.687Z,99130.80
2022-12-31T07:39:41.805Z,99129.13
2022-12-31T07:42:15.738Z,99127.64
2022-12-31T07:44:55.058Z,99126.91
2022-12-31T07:47:26.584Z,99123.39
2022-12-31T07:49:54.162Z,99132.44
2022-12-31T07:52:21.634Z,99128.95
2022-12-31T07:54:48.543Z,99132.40
2022-12-31T07:57:16.527Z,99128.84
2022-12-31T07:59:52.617Z,99123.34
2022-12-31T08:02:57.385Z,99120.73
2022-12-31T08:05:44.528Z,99122.83
2022-12-31T08:08:39.566Z,99125.05
2022-12-31T08:11:38.512Z,99133.73
2022-12-31T08:14:09.051Z,99130.73
2022-12-31T08:16:36.424Z,99129.34
2022-12-31T08:19:03.757Z,99124.03
2022-12-31T08:22:09.371Z,99124.76
2022-12-31T08:24:44.379Z,99126.89
2022-12-31T08:27:36.248Z,99130.35
2022-12-31T08:30:10.240Z,99134.40
2022-12-31T08:32:44.961Z,99136.34
2022-12-31T08:35:21.464Z,99138.71
2022-12-31T08:37:55.790Z,99133.05
2022-12-31T08:40:26.453Z,99130.15
2022-12-31T08:43:12.001Z,99132.54
2022-12-31T08:45:47.754Z,99137.32
2022-12-31T08:48:14.694Z,99132.83
2022-12-31T08:50:41.919Z,99133.15
2022-12-31T08:53:09.015Z,99124.27
2022-12-31T08:55:36.479Z,99116.40
2022-12-31T08:58:22.804Z,99114.25
2022-12-31T09:00:50.359Z,99115.16
2022-12-31T09:03:45.351Z,99113.31
2022-12-31T09:06:30.040Z,99109.23
2022-12-31T09:09:25.330Z,99113.25
2022-12-31T09:12:11.446Z,99108.20
2022-12-31T09:15:16.151Z,99102.77
2022-12-31T09:17:44.668Z,99102.64
2022-12-31T09:20:42.469Z,99097.95
2022-12-31T09:23:10.613Z,99097.15
2022-12-31T09:25:42.944Z,99094.92
2022-12-31T09:28:13.236Z,99090.39
2022-12-31T09:31:22.537Z,99093.70
2022-12-31T09:33:52.923Z,99090.96
2022-12-31T09:36:57.002Z,99084.33
2022-12-31T09:39:38.189Z,99083.83
2022-12-31T09:42:32.469Z,99086.63
2022-12-31T09:45:22.811Z,99080.85
2022-12-31T09:48:28.521Z,99076.45
2022-12-31T09:51:25.683Z,99079.91
2022-12-31T09:54:20.394Z,99083.63
2022-12-31T09:56:59.168Z,99075.37
2022-12-31T09:59:54.486Z,99072.63
2022-12-31T10:02:36.190Z,99067.95
2022-12-31T10:05:12.749Z,99065.77
2022-12-31T10:07:56.905Z,99068.23
2022-12-31T10:10:26.521Z,99067.84
2022-12-31T10:13:09.352Z,99076.02
2022-12-31T10:16:10.174Z,99075.73
2022-12-31T10:18:46.308Z,99076.61
2022-12-31T10:22:00.065Z,99074.08
2022-12-31T10:24:42.325Z,99062.65
2022-12-31T10:27:28.815Z,99065.02
2022-12-31T10:29:59.094Z,99069.80
2022-12-31T10:32:31.168Z,99071.64
2022-12-31T10:35:27.866Z,99071.39
2022-12-31T10:38:00.789Z,99068.63
2022-12-31T10:40:52.146Z,99062.66
2022-12-31T10:43:44.232Z,99056.55
2022-12-31T10:46:34.126Z,99047.66
2022-12-31T10:49:52.148Z,99045.15
2022-12-31T10:52:50.203Z,99039.48
2022-12-31T10:56:07.045Z,99038.66
2022-12-31T10:58:51.499Z,99030.15
2022-12-31T11:01:28.424Z,99026.50
2022-12-31T11:04:16.969Z,99022.53
2022-12-31T11:07:02.719Z,99017.30
2022-12-31T11:10:01.831Z,99020.17
2022-12-31T11:12:31.790Z,99016.27
2022-12-31T11:15:14.081Z,99017.92
2022-12-31T11:17:54.386Z,99013.69
2022-12-31T11:20:46.587Z,99008.81
2022-12-31T11:23:32.192Z,99007.00
2022-12-31T11:26:37.277Z,99004.01
2022-12-31T11:29:22.753Z,99003.92
2022-12-31T11:31:52.681Z,99004.86
2022-12-31T11:34:42.445Z,99010.80
2022-12-31T11:37:28.467Z,99014.41
2022-12-31T11:40:25.505Z,99017.30
2022-12-31T11:43:01.225Z,99015.05
2022-12-31T11:45:42.263Z,99014.92
2022-12-31T11:48:31.438Z,99003.11
2022-12-31T11:51:24.479Z,98997.44
2022-12-31T11:54:07.692Z,98992.13
2022-12-31T11:56:40.749Z,98991.97
2022-12-31T11:59:14.359Z,98985.42
2022-12-31T12:02:00.222Z,98979.70
2022-12-31T12:04:27.650Z,98980.58
2022-12-31T12:06:54.574Z,98974.40
2022-12-31T12:09:30.531Z,98967.02
2022-12-31T12:11:59.049Z,98966.95
2022-12-31T12:14:38.969Z,98966.86
2022-12-31T12:17:32.169Z,98967.64
2022-12-31T12:20:04.351Z,98967.80
2022-12-31T12:22:31.819Z,98966.59
2022-12-31T12:25:03.885Z,98975.95
2022-12-31T12:27:33.179Z,98979.21
2022-12-31T12:30:19.375Z,98974.91
2022-12-31T12:33:02.162Z,98969.16
2022-12-31T12:35:31.405Z,98969.80
2022-12-31T12:38:06.490Z,98964.52
2022-12-31T12:40:34.629Z,98961.04
2022-12-31T12:43:02.078Z,98965.27
2022-12-31T12:45:51.437Z,98968.73
2022-12-31T12:48:34.828Z,98970.69
2022-12-31T12:51:02.235Z,98975.30
2022-12-31T12:53:37.629Z,98978.48
2022-12-31T12:56:36.088Z,98972.94
2022-12-31T12:59:39.757Z,98965.61
2022-12-31T13:02:12.654Z,98967.06
2022-12-31T13:04:46.489Z,98967.77
2022-12-31T13:07:32.409Z,98964.36
2022-12-31T13:10:02.612Z,98961.56
2022-12-31T13:13:13.362Z,98962.88
2022-12-31T13:15:26.867Z,98959.21
2022-12-31T13:18:31.240Z,98944.50
2022-12-31T13:21:20.287Z,98946.76
2022-12-31T13:23:57.483Z,98952.89
2022-12-31T13:26:25.670Z,98948.67
2022-12-31T13:28:52.639Z,98957.34
2022-12-31T13:31:23.640Z,98968.30
2022-12-31T13:33:52.926Z,98974.48
2022-12-31T13:36:21.381Z,98972.95
2022-12-31T13:38:52.554Z,98972.89
2022-12-31T13:41:29.425Z,98971.48
2022-12-31T13:44:11.326Z,98974.55
2022-12-31T13:47:04.723Z,98975.83
2022-12-31T13:50:14.432Z,98980.65
2022-12-31T13:52:48.606Z,98983.57
2022-12-31T13:55:19.239Z,98987.02
2022-12-31T13:57:47.387Z,98987.18
2022-12-31T14:00:30.271Z,98994.63
2022-12-31T14:03:09.098Z,98995.91
2022-12-31T14:05:57.885Z,98997.38
2022-12-31T14:08:24.832Z,99001.14
2022-12-31T14:10:58.037Z,99005.66
2022-12-31T14:13:34.779Z,99009.52
2022-12-31T14:16:16.111Z,99001.73
2022-12-31T14:19:04.913Z,98995.19
2022-12-31T14:21:56.702Z,98999.05
2022-12-31T14:24:42.915Z,98997.96
2022-12-31T14:27:16.136Z,98993.61
2022-12-31T14:29:46.050Z,98994.59
2022-12-31T14:32:32.339Z,98997.45
2022-12-31T14:35:02.336Z,98996.21
2022-12-31T14:37:55.365Z,99001.11
2022-12-31T14:40:39.673Z,99002.98
2022-12-31T14:43:30.787Z,99008.49
2022-12-31T14:46:06.846Z,99012.58
2022-12-31T14:48:39.811Z,99012.15
2022-12-31T14:51:06.915Z,99014.50
2022-12-31T14:53:34.072Z,99014.53
2022-12-31T14:56:25.380Z,99019.58
2022-12-31T14:58:57.211Z,99022.45
2022-12-31T15:01:26.296Z,99021.13
2022-12-31T15:03:55.744Z,99027.67
2022-12-31T15:06:34.881Z,99035.80
2022-12-31T15:09:32.914Z,99025.65
2022-12-31T15:12:07.065Z,99022.45
2022-12-31T15:15:12.702Z,99023.93
2022-12-31T15:17:48.075Z,99016.41
2022-12-31T15:20:45.949Z,99016.88
2022-12-31T15:23:34.523Z,99018.93
2022-12-31T15:26:01.528Z,99023.05
2022-12-31T15:28:34.186Z,99034.29
2022-12-31T15:31:18.084Z,99038.38
2022-12-31T15:34:02.266Z,99042.11
2022-12-31T15:36:32.100Z,99044.88
2022-12-31T15:39:05.319Z,99041.44
2022-12-31T15:42:03.094Z,99046.63
2022-12-31T15:44:57.936Z,99052.80
2022-12-31T15:47:30.185Z,99056.40
2022-12-31T15:50:02.843Z,99058.00
2022-12-31T15:52:38.227Z,99058.34
2022-12-31T15:55:05.771Z,99058.98
2022-12-31T15:57:34.325Z,99062.62
2022-12-31T16:00:02.256Z,99058.16
2022-12-31T16:02:34.340Z,99060.44
2022-12-31T16:05:01.265Z,99053.33
2022-12-31T16:07:28.209Z,99056.23
2022-12-31T16:09:56.701Z,99052.05
2022-12-31T16:12:32.724Z,99055.64
2022-12-31T16:15:00.678Z,99042.73
2022-12-31T16:17:33.460Z,99046.20
2022-12-31T16:20:01.557Z,99052.83
2022-12-31T16:22:39.044Z,99046.49
2022-12-31T16:27:54.794Z,99050.95
2022-12-31T16:30:28.510Z,99049.55
2022-12-31T16:33:00.664Z,99049.52
2022-12-31T16:35:32.566Z,99055.66
2022-12-31T16:38:16.403Z,99055.61
2022-12-31T16:41:06.137Z,99056.23
2022-12-31T16:43:38.101Z,99054.27
2022-12-31T16:46:14.164Z,99051.67
2022-12-31T16:48:46.112Z,99058.77
2022-12-31T16:51:17.246Z,99063.06
2022-12-31T16:53:44.104Z,99069.15
2022-12-31T16:56:11.037Z,99066.83
2022-12-31T16:58:40.783Z,99075.86
2022-12-31T17:01:18.397Z,99081.33
2022-12-31T17:03:47.338Z,99079.59
2022-12-31T17:06:18.570Z,99074.24
2022-12-31T17:08:49.948Z,99063.01
2022-12-31T17:11:45.635Z,99058.21
2022-12-31T17:14:14.776Z,99056.92
2022-12-31T17:17:02.831Z,99055.13
2022-12-31T17:19:42.169Z,99056.46
2022-12-31T17:22:13.893Z,99060.88
2022-12-31T17:24:41.118Z,99065.56
2022-12-31T17:27:08.933Z,99070.16
2022-12-31T17:29:36.032Z,99073.30
2022-12-31T17:34:14.658Z,99082.20
2022-12-31T17:36:52.222Z,99085.48
2022-12-31T17:39:21.480Z,99084.96
2022-12-31T17:41:49.842Z,99084.71
2022-12-31T17:44:21.148Z,99080.05
2022-12-31T17:46:49.387Z,99080.46
2022-12-31T17:49:16.794Z,99079.02
2022-12-31T17:51:47.547Z,99075.86
2022-12-31T17:54:15.620Z,99073.10
2022-12-31T17:56:42.442Z,99074.94
2022-12-31T17:59:13.414Z,99079.34
2022-12-31T18:01:40.441Z,99082.51
2022-12-31T18:04:12.619Z,99080.52
2022-12-31T18:06:39.912Z,99072.90
2022-12-31T18:09:07.348Z,99073.48
2022-12-31T18:11:35.497Z,99072.19
2022-12-31T18:14:02.685Z,99072.61
2022-12-31T18:16:30.730Z,99076.66
2022-12-31T18:18:58.479Z,99081.70
2022-12-31T18:21:29.534Z,99080.83
2022-12-31T18:26:23.142Z,99078.88
2022-12-31T18:28:50.390Z,99081.61
2022-12-31T18:31:25.253Z,99089.56
2022-12-31T18:33:52.659Z,99085.64
2022-12-31T18:36:23.430Z,99089.63
2022-12-31T18:38:50.338Z,99087.85
2022-12-31T18:41:26.926Z,99093.29
2022-12-31T18:43:53.941Z,99094.73
2022-12-31T18:46:23.462Z,99095.47
2022-12-31T18:48:50.448Z,99092.25
2022-12-31T18:51:25.126Z,99092.48
2022-12-31T18:53:56.385Z,99090.39
2022-12-31T18:56:25.270Z,99085.63
2022-12-31T18:58:52.250Z,99076.52
2022-12-31T19:01:35.459Z,99072.13
2022-12-31T19:04:04.602Z,99072.52
2022-12-31T19:06:31.635Z,99066.17
2022-12-31T19:09:00.911Z,99067.33
2022-12-31T19:11:33.063Z,99072.84
2022-12-31T19:14:00.064Z,99076.19
2022-12-31T19:16:26.973Z,99078.27
2022-12-31T19:18:54.194Z,99080.10
2022-12-31T19:21:22.771Z,99080.10
2022-12-31T19:23:50.034Z,99075.67
2022-12-31T19:26:18.839Z,99074.23
2022-12-31T19:28:46.296Z,99076.39
2022-12-31T19:31:13.301Z,99075.02
2022-12-31T19:33:40.699Z,99069.63
2022-12-31T19:36:16.318Z,99069.84
2022-12-31T19:38:43.771Z,99068.90
2022-12-31T19:41:18.194Z,99067.84
2022-12-31T19:43:46.200Z,99069.61
2022-12-31T19:46:14.650Z,99074.99
2022-12-31T19:48:41.688Z,99075.77
2022-12-31T19:51:10.234Z,99074.34
2022-12-31T19:53:37.379Z,99075.68
2022-12-31T19:56:04.886Z,99077.80
2022-12-31T19:58:31.902Z,99078.23
2022-12-31T20:01:02.809Z,99079.66
2022-12-31T20:03:32.502Z,99087.25
2022-12-31T20:06:11.488Z,99082.33
2022-12-31T20:08:38.943Z,99083.25
2022-12-31T20:11:20.171Z,99083.02
2022-12-31T20:13:47.880Z,99081.06
2022-12-31T20:16:17.266Z,99076.48
2022-12-31T20:18:45.237Z,99081.20
2022-12-31T20:21:20.147Z,99084.73
2022-12-31T20:23:48.308Z,99088.83
2022-12-31T20:26:15.675Z,99095.67
2022-12-31T20:28:42.543Z,99100.17
2022-12-31T20:31:11.093Z,99094.79
2022-12-31T20:33:38.189Z,99096.60
2022-12-31T20:36:06.126Z,99092.70
2022-12-31T20:38:33.150Z,99086.50
2022-12-31T20:41:08.067Z,99086.08
2022-12-31T20:43:35.620Z,99086.84
2022-12-31T20:46:22.525Z,99090.20
2022-12-31T20:48:50.871Z,99089.31
2022-12-31T20:51:18.407Z,99090.45
2022-12-31T20:53:47.896Z,99092.20
2022-12-31T20:56:17.229Z,99093.55
2022-12-31T20:58:44.304Z,99098.50
2022-12-31T21:01:11.294Z,99104.02
2022-12-31T21:04:04.998Z,99099.85
2022-12-31T21:06:26.280Z,99103.84
2022-12-31T21:08:55.887Z,99109.98
2022-12-31T21:11:41.599Z,99112.79
2022-12-31T21:14:13.132Z,99117.14
2022-12-31T21:16:40.282Z,99115.71
2022-12-31T21:19:07.392Z,99116.54
2022-12-31T21:21:34.493Z,99116.67
2022-12-31T21:24:01.526Z,99109.45
2022-12-31T21:26:29.270Z,99113.30
2022-12-31T21:28:56.139Z,99113.48
2022-12-31T21:31:23.025Z,99113.84
2022-12-31T21:33:49.836Z,99115.23
2022-12-31T21:36:16.974Z,99113.85
2022-12-31T21:38:44.232Z,99114.45
2022-12-31T21:41:33.607Z,99114.45
2022-12-31T21:44:02.114Z,99114.95
2022-12-31T21:46:29.378Z,99112.83
2022-12-31T21:48:57.384Z,99116.86
2022-12-31T21:51:24.474Z,99118.95
2022-12-31T21:53:51.503Z,99116.80
2022-12-31T21:56:21.197Z,99115.61
2022-12-31T21:59:12.516Z,99120.46
2022-12-31T22:01:58.123Z,99123.73
2022-12-31T22:05:00.225Z,99120.37
2022-12-31T22:07:11.945Z,99120.15
2022-12-31T22:09:38.787Z,99126.93
2022-12-31T22:12:06.396Z,99132.27
2022-12-31T22:14:33.535Z,99134.99
2022-12-31T22:17:00.482Z,99138.73
2022-12-31T22:19:27.296Z,99138.04
2022-12-31T22:21:54.335Z,99138.80
2022-12-31T22:24:21.351Z,99141.62
2022-12-31T22:26:48.339Z,99142.65
2022-12-31T22:29:15.207Z,99141.77
2022-12-31T22:31:42.426Z,99143.08
2022-12-31T22:34:09.367Z,99140.92
2022-12-31T22:36:36.219Z,99138.21
2022-12-31T22:39:03.671Z,99138.91
2022-12-31T22:41:31.220Z,99135.83
2022-12-31T22:44:03.756Z,99132.04
2022-12-31T22:46:33.722Z,99127.53
2022-12-31T22:49:03.279Z,99123.36
2022-12-31T22:51:57.074Z,99125.64
2022-12-31T22:54:18.214Z,99120.98
2022-12-31T22:56:45.178Z,99120.33
2022-12-31T22:59:11.965Z,99121.26
2022-12-31T23:01:39.863Z,99122.42
2022-12-31T23:04:06.978Z,99117.41
2022-12-31T23:06:43.337Z,99118.25
2022-12-31T23:09:33.235Z,99121.77
2022-12-31T23:12:00.321Z,99124.83
2022-12-31T23:14:46.179Z,99125.85
2022-12-31T23:17:40.654Z,99127.55
2022-12-31T23:20:29.730Z,99126.35
2022-12-31T23:23:12.676Z,99125.55
2022-12-31T23:25:40.851Z,99125.05
2022-12-31T23:28:08.340Z,99125.20
2022-12-31T23:30:39.371Z,99125.45
2022-12-31T23:33:06.993Z,99128.42
2022-12-31T23:35:33.924Z,99125.36
2022-12-31T23:38:00.785Z,99126.36
2022-12-31T23:40:34.437Z,99128.98
2022-12-31T23:43:06.268Z,99124.15
2022-12-31T23:45:33.657Z,99115.97
2022-12-31T23:48:00.652Z,99112.79
2022-12-31T23:50:27.898Z,99116.02
2022-12-31T23:52:54.763Z,99117.13
2022-12-31T23:55:21.916Z,99122.04
2022-12-31T23:57:48.816Z,99122.55
